Ironwood, Michigan
Current Conditions -  °F | °C
As of 2:15 AM on Sunday 26 Oct 2014 (Local Time) from KIWD Reporting Station
Clear Clear  
Wind Chill: 34°   Ceiling: Unl
Heat Index: 39°   Visibility: 10mi
Dew Point: 27°   Wind: 8mph
Humidity: 61%   Direction: 240°WSW
Pressure: 29.93"   Gusts: NA
Location:  46.46°N, 90.16°W
Report Text: KIWD 260715Z AUTO 24007KT 10SM CLR 04/M03 A2993 RMK AO1
Loading
Personal Weather Stations






























Interactive Weather Map
Tropical Storm Tracking
New forecast layout! Learn more

10-Day Weather Forecast

Advertisements
Track Severe Weather on mobile